createdAt,value
2022-10-17T00:02:14.217Z,15.76
2022-10-17T00:07:15.413Z,15.72
2022-10-17T00:12:16.662Z,15.66
2022-10-17T00:17:18.026Z,15.76
2022-10-17T00:22:19.242Z,15.62
2022-10-17T00:27:20.516Z,15.28
2022-10-17T00:32:21.770Z,15.27
2022-10-17T00:37:23.090Z,15.34
2022-10-17T00:42:25.249Z,15.21
2022-10-17T00:47:26.754Z,15.27
2022-10-17T00:52:28.243Z,15.31
2022-10-17T00:57:29.662Z,15.43
2022-10-17T01:02:31.103Z,15.34
2022-10-17T01:07:34.914Z,15.23
2022-10-17T01:12:38.447Z,15.29
2022-10-17T01:17:39.730Z,15.35
2022-10-17T01:22:41.015Z,15.19
2022-10-17T01:27:42.231Z,15.14
2022-10-17T01:32:43.435Z,15.14
2022-10-17T01:37:44.780Z,15.07
2022-10-17T01:42:46.010Z,14.97
2022-10-17T01:47:47.247Z,15.20
2022-10-17T01:52:48.498Z,15.12
2022-10-17T01:57:49.706Z,14.44
2022-10-17T02:02:50.955Z,14.57
2022-10-17T02:07:52.240Z,14.85
2022-10-17T02:12:53.463Z,14.73
2022-10-17T02:17:54.667Z,14.84
2022-10-17T02:22:55.940Z,14.72
2022-10-17T02:27:57.133Z,14.49
2022-10-17T02:32:58.317Z,14.23
2022-10-17T02:37:59.517Z,14.47
2022-10-17T02:43:01.045Z,14.53
2022-10-17T02:48:02.234Z,14.53
2022-10-17T02:53:03.474Z,14.32
2022-10-17T02:58:04.751Z,14.29
2022-10-17T03:03:06.008Z,14.23
2022-10-17T03:08:07.265Z,14.16
2022-10-17T03:13:08.471Z,14.03
2022-10-17T03:18:09.698Z,13.84
2022-10-17T03:23:10.894Z,13.77
2022-10-17T03:28:12.434Z,13.76
2022-10-17T03:33:13.630Z,13.75
2022-10-17T03:38:14.894Z,13.85
2022-10-17T03:43:16.105Z,13.72
2022-10-17T03:48:17.309Z,13.34
2022-10-17T03:53:18.559Z,13.68
2022-10-17T03:58:19.797Z,13.78
2022-10-17T04:03:21.072Z,13.75
2022-10-17T04:08:22.263Z,13.87
2022-10-17T04:13:23.462Z,13.82
2022-10-17T04:18:24.686Z,13.59
2022-10-17T04:23:27.091Z,13.77
2022-10-17T04:28:28.466Z,13.84
2022-10-17T04:33:29.741Z,13.70
2022-10-17T04:38:30.965Z,13.40
2022-10-17T04:43:32.160Z,13.24
2022-10-17T04:48:33.804Z,13.03
2022-10-17T04:53:35.024Z,13.24
2022-10-17T04:58:36.268Z,13.28
2022-10-17T05:03:37.502Z,13.33
2022-10-17T05:08:38.770Z,13.39
2022-10-17T05:13:39.960Z,13.37
2022-10-17T05:18:41.157Z,13.60
2022-10-17T05:23:42.358Z,13.70
2022-10-17T05:28:43.574Z,13.73
2022-10-17T05:33:44.827Z,13.54
2022-10-17T05:38:46.041Z,13.71
2022-10-17T05:43:47.273Z,13.68
2022-10-17T05:48:48.627Z,13.54
2022-10-17T05:53:49.902Z,13.46
2022-10-17T05:58:54.098Z,13.30
2022-10-17T06:03:56.537Z,13.30
2022-10-17T06:08:57.927Z,13.41
2022-10-17T06:13:59.127Z,13.26
2022-10-17T06:19:00.330Z,13.31
2022-10-17T06:24:01.539Z,13.57
2022-10-17T06:29:02.881Z,13.67
2022-10-17T06:34:04.114Z,13.57
2022-10-17T06:39:05.401Z,13.66
2022-10-17T06:44:11.001Z,13.64
2022-10-17T06:49:12.233Z,13.75
2022-10-17T06:54:13.425Z,14.00
2022-10-17T06:59:15.602Z,13.58
2022-10-17T07:04:16.975Z,13.77
2022-10-17T07:09:18.227Z,13.75
2022-10-17T07:14:19.577Z,14.00
2022-10-17T07:19:20.819Z,14.05
2022-10-17T07:24:22.028Z,14.21
2022-10-17T07:29:23.254Z,14.34
2022-10-17T07:34:27.503Z,14.20
2022-10-17T07:39:28.766Z,14.37
2022-10-17T07:44:30.021Z,14.29
2022-10-17T07:49:31.338Z,14.44
2022-10-17T07:54:32.583Z,14.55
2022-10-17T07:59:33.934Z,14.48
2022-10-17T08:04:36.592Z,14.54
2022-10-17T08:09:37.899Z,14.68
2022-10-17T08:14:39.770Z,14.79
2022-10-17T08:19:40.983Z,14.82
2022-10-17T08:24:42.898Z,14.97
2022-10-17T08:29:44.886Z,14.92
2022-10-17T08:34:46.091Z,15.08
2022-10-17T08:39:47.405Z,15.33
2022-10-17T08:44:48.624Z,15.57
2022-10-17T08:49:51.435Z,15.69
2022-10-17T08:54:52.654Z,15.81
2022-10-17T08:59:54.503Z,15.86
2022-10-17T09:04:57.445Z,15.78
2022-10-17T09:09:58.941Z,15.94
2022-10-17T09:15:00.218Z,16.31
2022-10-17T09:20:05.051Z,16.34
2022-10-17T09:25:06.960Z,16.30
2022-10-17T09:30:13.067Z,17.09
2022-10-17T09:35:18.444Z,17.24
2022-10-17T09:40:20.100Z,17.85
2022-10-17T09:45:24.892Z,18.18
2022-10-17T09:50:26.144Z,18.61
2022-10-17T09:55:32.979Z,19.03
2022-10-17T10:00:34.247Z,19.09
2022-10-17T10:05:35.518Z,19.12
2022-10-17T10:10:43.144Z,19.60
2022-10-17T10:15:44.519Z,19.82
2022-10-17T10:20:46.841Z,19.92
2022-10-17T10:25:48.246Z,20.19
2022-10-17T10:30:49.497Z,20.03
2022-10-17T10:35:50.928Z,20.16
2022-10-17T10:40:52.153Z,20.28
2022-10-17T10:45:53.493Z,20.48
2022-10-17T10:50:54.713Z,20.54
2022-10-17T10:55:55.955Z,21.08
2022-10-17T11:00:57.230Z,20.92
2022-10-17T11:05:58.476Z,20.54
2022-10-17T11:10:59.959Z,20.96
2022-10-17T11:16:01.188Z,21.55
2022-10-17T11:21:02.612Z,21.82
2022-10-17T11:26:03.912Z,22.08
2022-10-17T11:31:07.254Z,22.08
2022-10-17T11:36:09.274Z,21.99
2022-10-17T11:41:10.521Z,22.34
2022-10-17T11:46:11.754Z,22.12
2022-10-17T11:56:36.123Z,22.51
2022-10-17T12:01:38.295Z,22.31
2022-10-17T12:06:39.534Z,22.19
2022-10-17T12:11:40.846Z,22.32
2022-10-17T12:21:43.556Z,22.76
2022-10-17T12:26:44.910Z,22.85
2022-10-17T12:31:46.146Z,22.93
2022-10-17T12:36:47.402Z,22.76
2022-10-17T12:41:51.530Z,22.77
2022-10-17T12:46:52.729Z,22.77
2022-10-17T12:51:54.012Z,22.68
2022-10-17T12:56:58.159Z,22.87
2022-10-17T13:01:59.556Z,22.93
2022-10-17T13:07:01.585Z,23.22
2022-10-17T13:12:03.135Z,23.19
2022-10-17T13:17:04.392Z,23.60
2022-10-17T13:22:07.280Z,23.28
2022-10-17T13:27:08.656Z,23.81
2022-10-17T13:32:12.086Z,24.44
2022-10-17T13:37:13.451Z,24.75
2022-10-17T13:42:14.757Z,24.84
2022-10-17T13:47:16.076Z,25.12
2022-10-17T13:52:17.316Z,25.64
2022-10-17T13:57:18.572Z,25.80
2022-10-17T14:02:19.777Z,25.82
2022-10-17T14:07:41.583Z,25.44
2022-10-17T14:12:51.539Z,26.03
2022-10-17T14:17:52.793Z,26.27
2022-10-17T14:23:21.070Z,26.39
2022-10-17T14:28:15.795Z,26.38
2022-10-17T14:33:16.992Z,26.00
2022-10-17T14:38:18.212Z,26.53
2022-10-17T14:43:19.444Z,26.59
2022-10-17T14:48:20.651Z,26.42
2022-10-17T14:53:21.968Z,26.07
2022-10-17T14:58:23.170Z,25.58
2022-10-17T15:03:24.375Z,25.34
2022-10-17T15:08:25.693Z,24.77
2022-10-17T15:13:28.884Z,23.84
2022-10-17T15:18:32.282Z,23.33
2022-10-17T15:23:33.498Z,22.96
2022-10-17T15:28:34.770Z,23.12
2022-10-17T15:33:36.016Z,22.77
2022-10-17T15:38:37.224Z,22.53
2022-10-17T15:43:38.480Z,22.03
2022-10-17T15:48:39.733Z,21.65
2022-10-17T15:53:41.360Z,21.70
2022-10-17T15:58:42.793Z,21.09
2022-10-17T16:03:47.212Z,20.97
2022-10-17T16:08:48.449Z,20.95
2022-10-17T16:13:49.799Z,20.36
2022-10-17T16:18:51.009Z,20.38
2022-10-17T16:23:52.328Z,20.33
2022-10-17T16:28:55.183Z,19.62
2022-10-17T16:33:56.511Z,19.19
2022-10-17T16:39:00.364Z,19.59
2022-10-17T16:44:01.562Z,19.57
2022-10-17T16:49:02.767Z,19.28
2022-10-17T16:54:04.601Z,18.96
2022-10-17T16:59:06.320Z,18.93
2022-10-17T17:04:09.107Z,18.44
2022-10-17T17:09:10.360Z,18.56
2022-10-17T17:14:11.740Z,18.24
2022-10-17T17:19:13.325Z,18.27
2022-10-17T17:24:14.975Z,18.18
2022-10-17T17:29:16.220Z,18.33
2022-10-17T17:34:18.335Z,17.94
2022-10-17T17:39:19.823Z,17.68
2022-10-17T17:44:21.063Z,17.83
2022-10-17T17:49:22.288Z,17.46
2022-10-17T17:54:23.542Z,17.40
2022-10-17T17:59:24.844Z,17.53
2022-10-17T18:04:28.086Z,17.43
2022-10-17T18:09:29.375Z,17.55
2022-10-17T18:14:30.799Z,17.28
2022-10-17T18:19:32.177Z,17.49
2022-10-17T18:24:33.472Z,17.37
2022-10-17T18:29:34.774Z,17.22
2022-10-17T18:34:36.040Z,17.33
2022-10-17T18:39:37.291Z,17.45
2022-10-17T18:44:38.548Z,16.94
2022-10-17T18:49:39.786Z,17.13
2022-10-17T18:54:40.990Z,16.49
2022-10-17T18:59:42.352Z,16.48
2022-10-17T19:04:43.622Z,16.71
2022-10-17T19:09:44.859Z,16.30
2022-10-17T19:14:46.075Z,16.70
2022-10-17T19:19:50.301Z,16.77
2022-10-17T19:24:51.501Z,16.41
2022-10-17T19:29:52.699Z,16.40
2022-10-17T19:34:54.578Z,16.62
2022-10-17T19:39:55.806Z,16.66
2022-10-17T19:44:57.029Z,16.07
2022-10-17T19:49:58.287Z,16.33
2022-10-17T19:54:59.499Z,16.52
2022-10-17T20:00:00.853Z,16.49
2022-10-17T20:05:18.923Z,16.40
2022-10-17T20:10:20.618Z,16.27
2022-10-17T20:15:21.811Z,16.07
2022-10-17T20:20:23.011Z,15.83
2022-10-17T20:25:24.278Z,15.96
2022-10-17T20:30:25.617Z,15.58
2022-10-17T20:35:26.867Z,15.80
2022-10-17T20:40:35.867Z,15.48
2022-10-17T20:45:50.790Z,15.79
2022-10-17T20:50:52.310Z,15.99
2022-10-17T20:55:53.563Z,15.90
2022-10-17T21:00:54.773Z,15.71
2022-10-17T21:05:55.995Z,15.64
2022-10-17T21:10:57.199Z,15.53
2022-10-17T21:15:58.532Z,15.41
2022-10-17T21:20:59.821Z,15.27
2022-10-17T21:26:01.055Z,15.24
2022-10-17T21:31:02.263Z,15.27
2022-10-17T21:36:03.500Z,15.40
2022-10-17T21:41:04.745Z,15.23
2022-10-17T21:46:05.972Z,15.14
2022-10-17T21:51:07.166Z,15.03
2022-10-17T21:56:08.398Z,14.58
2022-10-17T22:01:09.703Z,14.58
2022-10-17T22:06:37.565Z,14.84
2022-10-17T22:11:32.142Z,15.06
2022-10-17T22:16:33.357Z,14.86
2022-10-17T22:21:34.566Z,14.81
2022-10-17T22:26:35.793Z,14.95
2022-10-17T22:31:37.018Z,14.94
2022-10-17T22:36:38.292Z,14.65
2022-10-17T22:41:39.505Z,14.34
2022-10-17T22:46:40.974Z,14.31
2022-10-17T22:51:42.219Z,14.42
2022-10-17T22:56:43.470Z,14.72
2022-10-17T23:01:44.767Z,14.57
2022-10-17T23:06:46.033Z,14.34
2022-10-17T23:11:47.243Z,14.47
2022-10-17T23:16:48.449Z,14.66
2022-10-17T23:21:49.662Z,14.38
2022-10-17T23:26:50.867Z,14.63
2022-10-17T23:31:52.079Z,14.57
2022-10-17T23:36:53.282Z,14.20
2022-10-17T23:41:54.483Z,14.22
2022-10-17T23:46:56.054Z,14.07
2022-10-17T23:51:57.243Z,13.93
2022-10-17T23:56:58.448Z,14.20
